createdAt,value
2023-01-07T00:01:11.480Z,3.90
2023-01-07T00:03:38.597Z,4.00
2023-01-07T00:06:07.160Z,4.30
2023-01-07T00:08:35.531Z,4.50
2023-01-07T00:11:03.256Z,4.40
2023-01-07T00:13:30.111Z,4.70
2023-01-07T00:16:00.699Z,4.50
2023-01-07T00:18:27.619Z,4.90
2023-01-07T00:21:01.532Z,4.90
2023-01-07T00:23:28.964Z,5.10
2023-01-07T00:26:07.093Z,5.10
2023-01-07T00:28:34.481Z,4.70
2023-01-07T00:31:01.993Z,4.80
2023-01-07T00:33:28.783Z,5.20
2023-01-07T00:36:02.449Z,5.10
2023-01-07T00:38:29.186Z,4.40
2023-01-07T00:40:55.933Z,4.60
2023-01-07T00:43:22.565Z,4.50
2023-01-07T00:45:49.407Z,4.30
2023-01-07T00:48:17.585Z,4.40
2023-01-07T00:50:44.682Z,4.80
2023-01-07T00:53:11.622Z,4.50
2023-01-07T00:55:38.504Z,4.20
2023-01-07T00:58:05.394Z,4.90
2023-01-07T01:00:32.262Z,4.00
2023-01-07T01:02:59.566Z,4.10
2023-01-07T01:05:26.585Z,5.10
2023-01-07T01:07:53.244Z,4.80
2023-01-07T01:10:20.176Z,4.50
2023-01-07T01:12:49.343Z,4.50
2023-01-07T01:15:16.660Z,4.20
2023-01-07T01:17:43.382Z,4.20
2023-01-07T01:20:12.921Z,4.50
2023-01-07T01:22:39.682Z,4.00
2023-01-07T01:25:07.068Z,4.40
2023-01-07T01:27:33.741Z,4.30
2023-01-07T01:30:00.459Z,4.50
2023-01-07T01:32:27.558Z,4.10
2023-01-07T01:34:54.473Z,4.20
2023-01-07T01:37:21.539Z,4.10
2023-01-07T01:39:48.432Z,4.10
2023-01-07T01:42:16.418Z,3.90
2023-01-07T01:44:49.288Z,4.10
2023-01-07T01:47:46.542Z,4.10
2023-01-07T01:50:23.876Z,4.00
2023-01-07T01:52:58.744Z,4.20
2023-01-07T01:55:36.866Z,4.10
2023-01-07T01:58:09.892Z,3.90
2023-01-07T02:00:36.684Z,4.20
2023-01-07T02:03:04.830Z,3.90
2023-01-07T02:05:32.960Z,3.80
2023-01-07T02:07:59.870Z,4.10
2023-01-07T02:10:28.675Z,3.70
2023-01-07T02:13:25.623Z,3.90
2023-01-07T02:15:55.416Z,3.90
2023-01-07T02:18:25.048Z,3.80
2023-01-07T02:21:07.109Z,4.00
2023-01-07T02:23:53.032Z,3.90
2023-01-07T02:27:08.268Z,4.30
2023-01-07T02:29:54.550Z,4.10
2023-01-07T02:32:31.865Z,4.50
2023-01-07T02:35:39.343Z,4.00
2023-01-07T02:38:27.790Z,4.00
2023-01-07T02:41:12.270Z,4.50
2023-01-07T02:43:57.366Z,4.10
2023-01-07T02:46:30.430Z,3.90
2023-01-07T02:49:00.997Z,3.70
2023-01-07T02:51:46.143Z,3.80
2023-01-07T02:54:17.389Z,4.10
2023-01-07T02:56:54.577Z,3.50
2023-01-07T02:59:43.000Z,4.00
2023-01-07T03:02:35.144Z,4.10
2023-01-07T03:05:28.062Z,4.00
2023-01-07T03:08:15.717Z,3.50
2023-01-07T03:10:48.480Z,3.90
2023-01-07T03:13:20.715Z,4.10
2023-01-07T03:15:51.815Z,4.00
2023-01-07T03:18:26.685Z,4.10
2023-01-07T03:20:54.927Z,4.20
2023-01-07T03:23:22.741Z,4.20
2023-01-07T03:25:50.393Z,3.70
2023-01-07T03:28:19.570Z,3.90
2023-01-07T03:30:46.200Z,4.00
2023-01-07T03:33:37.416Z,4.50
2023-01-07T03:36:04.192Z,3.60
2023-01-07T03:38:30.951Z,4.10
2023-01-07T03:40:58.529Z,3.90
2023-01-07T03:43:25.228Z,4.00
2023-01-07T03:45:52.832Z,4.10
2023-01-07T03:48:19.573Z,4.00
2023-01-07T03:50:48.093Z,3.60
2023-01-07T03:53:14.783Z,4.00
2023-01-07T03:55:44.159Z,3.90
2023-01-07T03:58:10.861Z,3.80
2023-01-07T04:00:37.517Z,3.80
2023-01-07T04:03:11.627Z,3.80
2023-01-07T04:05:40.692Z,3.90
2023-01-07T04:08:07.948Z,3.70
2023-01-07T04:10:37.073Z,3.90
2023-01-07T04:13:03.807Z,4.00
2023-01-07T04:15:30.479Z,4.10
2023-01-07T04:17:57.387Z,3.80
2023-01-07T04:20:24.391Z,3.90
2023-01-07T04:22:51.068Z,3.80
2023-01-07T04:25:17.789Z,3.90
2023-01-07T04:27:44.501Z,4.00
2023-01-07T04:30:11.996Z,3.90
2023-01-07T04:32:38.821Z,3.90
2023-01-07T04:35:05.728Z,3.60
2023-01-07T04:37:33.209Z,3.60
2023-01-07T04:40:00.803Z,3.70
2023-01-07T04:42:29.254Z,3.90
2023-01-07T04:44:56.409Z,3.90
2023-01-07T04:47:23.047Z,3.40
2023-01-07T04:49:50.303Z,3.80
2023-01-07T04:52:17.116Z,3.90
2023-01-07T04:54:43.806Z,3.90
2023-01-07T04:57:10.556Z,4.00
2023-01-07T04:59:37.519Z,3.80
2023-01-07T05:02:04.764Z,3.80
2023-01-07T05:04:32.048Z,4.00
2023-01-07T05:06:58.846Z,3.60
2023-01-07T05:09:25.793Z,4.30
2023-01-07T05:11:52.783Z,3.80
2023-01-07T05:14:19.674Z,4.30
2023-01-07T05:16:47.832Z,4.30
2023-01-07T05:19:14.582Z,4.80
2023-01-07T05:21:43.987Z,4.40
2023-01-07T05:24:11.238Z,4.10
2023-01-07T05:26:38.041Z,4.00
2023-01-07T05:29:05.004Z,4.30
2023-01-07T05:31:32.439Z,4.30
2023-01-07T05:33:59.179Z,4.40
2023-01-07T05:36:26.053Z,3.90
2023-01-07T05:38:53.384Z,4.20
2023-01-07T05:41:20.975Z,3.90
2023-01-07T05:43:47.679Z,4.40
2023-01-07T05:46:14.373Z,4.20
2023-01-07T05:48:41.307Z,3.70
2023-01-07T05:51:08.034Z,3.80
2023-01-07T05:53:34.810Z,4.00
2023-01-07T05:56:01.725Z,3.90
2023-01-07T05:58:28.558Z,3.80
2023-01-07T06:00:55.273Z,4.20
2023-01-07T06:03:22.102Z,4.20
2023-01-07T06:05:48.920Z,3.90
2023-01-07T06:08:15.555Z,4.40
2023-01-07T06:10:42.652Z,4.70
2023-01-07T06:13:09.395Z,5.40
2023-01-07T06:15:36.271Z,4.90
2023-01-07T06:18:02.957Z,5.20
2023-01-07T06:20:34.836Z,5.10
2023-01-07T06:25:38.124Z,5.10
2023-01-07T06:28:05.208Z,5.20
2023-01-07T06:30:31.957Z,4.60
2023-01-07T06:32:58.848Z,5.00
2023-01-07T06:35:25.791Z,5.30
2023-01-07T06:37:52.464Z,5.00
2023-01-07T06:40:19.191Z,5.30
2023-01-07T06:42:45.834Z,4.90
2023-01-07T06:45:12.538Z,4.70
2023-01-07T06:47:39.211Z,5.40
2023-01-07T06:50:06.888Z,5.40
2023-01-07T06:52:33.835Z,5.30
2023-01-07T06:55:00.483Z,5.40
2023-01-07T06:57:27.222Z,5.50
2023-01-07T06:59:53.848Z,5.90
2023-01-07T07:02:22.457Z,5.00
2023-01-07T07:04:49.433Z,5.30
2023-01-07T07:07:16.680Z,5.60
2023-01-07T07:09:43.482Z,5.30
2023-01-07T07:12:10.314Z,5.50
2023-01-07T07:14:36.978Z,4.80
2023-01-07T07:17:04.427Z,4.80
2023-01-07T07:19:31.265Z,5.10
2023-01-07T07:21:57.904Z,5.20
2023-01-07T07:24:24.591Z,5.10
2023-01-07T07:26:51.281Z,5.10
2023-01-07T07:29:17.956Z,4.90
2023-01-07T07:31:44.605Z,5.10
2023-01-07T07:34:11.339Z,5.40
2023-01-07T07:36:38.019Z,5.00
2023-01-07T07:39:05.071Z,5.50
2023-01-07T07:41:31.740Z,5.60
2023-01-07T07:43:59.132Z,6.10
2023-01-07T07:46:25.792Z,5.90
2023-01-07T07:48:52.496Z,5.50
2023-01-07T07:51:19.180Z,6.20
2023-01-07T07:53:45.816Z,5.40
2023-01-07T07:56:12.484Z,5.50
2023-01-07T07:58:39.149Z,5.30
2023-01-07T08:01:06.321Z,5.00
2023-01-07T08:03:33.358Z,4.90
2023-01-07T08:06:00.099Z,5.00
2023-01-07T08:08:26.787Z,5.40
2023-01-07T08:10:55.557Z,5.30
2023-01-07T08:13:22.664Z,5.30
2023-01-07T08:15:49.361Z,5.50
2023-01-07T08:18:16.165Z,5.50
2023-01-07T08:20:42.854Z,5.60
2023-01-07T08:23:10.056Z,4.70
2023-01-07T08:25:36.741Z,4.90
2023-01-07T08:28:03.555Z,5.10
2023-01-07T08:30:30.786Z,5.20
2023-01-07T08:32:57.851Z,4.80
2023-01-07T08:35:24.544Z,5.20
2023-01-07T08:37:51.190Z,5.20
2023-01-07T08:40:17.978Z,5.40
2023-01-07T08:42:44.758Z,5.40
2023-01-07T08:45:12.802Z,5.80
2023-01-07T08:47:39.533Z,5.50
2023-01-07T08:50:07.038Z,5.90
2023-01-07T08:52:33.709Z,5.50
2023-01-07T08:55:00.349Z,6.20
2023-01-07T08:57:27.001Z,5.70
2023-01-07T08:59:53.633Z,5.70
2023-01-07T09:02:20.614Z,5.70
2023-01-07T09:04:47.346Z,5.70
2023-01-07T09:07:13.981Z,5.20
2023-01-07T09:09:42.981Z,5.20
2023-01-07T09:12:11.054Z,4.90
2023-01-07T09:14:38.194Z,5.00
2023-01-07T09:17:04.880Z,5.50
2023-01-07T09:19:31.579Z,4.60
2023-01-07T09:21:58.278Z,5.00
2023-01-07T09:24:24.957Z,5.30
2023-01-07T09:26:51.754Z,4.90
2023-01-07T09:29:18.604Z,4.70
2023-01-07T09:31:45.691Z,5.20
2023-01-07T09:34:12.566Z,5.40
2023-01-07T09:36:39.205Z,5.10
2023-01-07T09:39:05.939Z,4.80
2023-01-07T09:41:47.932Z,5.20
2023-01-07T09:44:45.086Z,5.10
2023-01-07T09:47:13.293Z,5.20
2023-01-07T09:49:40.024Z,5.20
2023-01-07T09:52:08.751Z,6.50
2023-01-07T09:54:36.909Z,5.20
2023-01-07T09:57:06.816Z,6.20
2023-01-07T09:59:33.491Z,5.20
2023-01-07T10:02:03.166Z,5.50
2023-01-07T10:04:49.845Z,5.40
2023-01-07T10:07:30.120Z,5.50
2023-01-07T10:10:00.856Z,5.30
2023-01-07T10:12:42.031Z,5.20
2023-01-07T10:15:47.453Z,5.70
2023-01-07T10:18:36.679Z,5.00
2023-01-07T10:21:06.323Z,5.90
2023-01-07T10:23:35.899Z,6.20
2023-01-07T10:26:03.319Z,6.20
2023-01-07T10:28:48.906Z,6.90
2023-01-07T10:31:21.357Z,5.80
2023-01-07T10:33:48.557Z,6.00
2023-01-07T10:36:28.282Z,5.40
2023-01-07T10:39:21.061Z,5.20
2023-01-07T10:42:12.627Z,5.20
2023-01-07T10:44:54.238Z,5.30
2023-01-07T10:47:25.203Z,5.80
2023-01-07T10:50:22.322Z,5.70
2023-01-07T10:53:19.200Z,5.60
2023-01-07T10:56:06.076Z,6.20
2023-01-07T10:59:04.428Z,6.20
2023-01-07T11:01:37.761Z,5.80
2023-01-07T11:04:05.104Z,5.80
2023-01-07T11:06:48.741Z,6.60
2023-01-07T11:09:18.409Z,6.00
2023-01-07T11:11:45.188Z,6.80
2023-01-07T11:14:14.187Z,6.20
2023-01-07T11:16:56.854Z,6.40
2023-01-07T11:19:24.046Z,5.60
2023-01-07T11:21:52.259Z,6.10
2023-01-07T11:24:18.921Z,5.40
2023-01-07T11:26:46.025Z,5.30
2023-01-07T11:29:20.946Z,5.30
2023-01-07T11:32:00.729Z,5.60
2023-01-07T11:34:37.919Z,5.70
2023-01-07T11:37:04.997Z,5.80
2023-01-07T11:39:34.650Z,5.10
2023-01-07T11:42:36.174Z,5.30
2023-01-07T11:45:19.388Z,5.50
2023-01-07T11:47:53.568Z,6.20
2023-01-07T11:50:25.580Z,6.10
2023-01-07T11:53:00.214Z,6.00
2023-01-07T11:55:26.935Z,6.50
2023-01-07T11:58:00.971Z,5.90
2023-01-07T12:00:41.201Z,6.70
2023-01-07T12:03:11.947Z,6.70
2023-01-07T12:05:39.712Z,5.10
2023-01-07T12:08:06.432Z,5.50
2023-01-07T12:10:35.205Z,6.20
2023-01-07T12:13:03.977Z,5.80
2023-01-07T12:15:32.463Z,5.30
2023-01-07T12:18:08.335Z,5.60
2023-01-07T12:21:20.043Z,6.00
2023-01-07T12:23:46.678Z,5.10
2023-01-07T12:26:19.253Z,5.40
2023-01-07T12:29:04.584Z,5.70
2023-01-07T12:32:03.545Z,5.50
2023-01-07T12:34:37.809Z,6.20
2023-01-07T12:37:23.624Z,5.70
2023-01-07T12:39:53.330Z,6.60
2023-01-07T12:44:56.964Z,6.00
2023-01-07T12:47:30.563Z,6.70
2023-01-07T12:50:24.749Z,6.30
2023-01-07T12:52:57.716Z,6.50
2023-01-07T12:55:44.965Z,5.90
2023-01-07T12:58:44.889Z,6.30
2023-01-07T13:01:26.785Z,6.50
2023-01-07T13:04:15.095Z,7.10
2023-01-07T13:06:55.382Z,6.50
2023-01-07T13:09:41.265Z,5.90
2023-01-07T13:12:43.513Z,5.70
2023-01-07T13:15:13.621Z,5.70
2023-01-07T13:17:40.967Z,5.50
2023-01-07T13:20:14.400Z,6.30
2023-01-07T13:22:44.532Z,5.50
2023-01-07T13:25:17.893Z,6.10
2023-01-07T13:27:54.362Z,5.60
2023-01-07T13:30:35.939Z,5.70
2023-01-07T13:33:05.569Z,5.80
2023-01-07T13:35:53.730Z,5.80
2023-01-07T13:38:26.502Z,6.10
2023-01-07T13:40:56.080Z,5.70
2023-01-07T13:43:55.414Z,5.70
2023-01-07T13:46:24.424Z,6.10
2023-01-07T13:48:52.769Z,7.30
2023-01-07T13:51:33.002Z,7.10
2023-01-07T13:53:59.830Z,6.80
2023-01-07T13:56:26.640Z,7.30
2023-01-07T13:58:55.448Z,7.30
2023-01-07T14:01:33.629Z,7.50
2023-01-07T18:24:24.747Z,7.00
2023-01-07T18:26:51.636Z,7.90
2023-01-07T18:29:18.441Z,7.10
2023-01-07T18:31:45.205Z,7.50
2023-01-07T18:34:13.122Z,6.50
2023-01-07T18:36:40.143Z,6.70
2023-01-07T18:39:09.274Z,6.70
2023-01-07T18:41:36.021Z,6.80
2023-01-07T18:44:02.853Z,7.00
2023-01-07T18:46:29.686Z,7.40
2023-01-07T18:48:56.826Z,7.60
2023-01-07T18:51:23.513Z,7.50
2023-01-07T18:53:50.271Z,7.30
2023-01-07T18:56:17.171Z,7.20
2023-01-07T18:58:44.349Z,7.50
2023-01-07T19:01:11.215Z,7.30
2023-01-07T19:03:38.571Z,7.60
2023-01-07T19:06:08.796Z,8.10
2023-01-07T19:08:35.544Z,7.60
2023-01-07T19:11:05.909Z,7.80
2023-01-07T19:13:32.535Z,7.20
2023-01-07T19:15:59.219Z,7.00
2023-01-07T19:18:25.875Z,7.20
2023-01-07T19:20:52.565Z,6.80
2023-01-07T19:23:19.207Z,6.80
2023-01-07T19:25:55.732Z,6.50
2023-01-07T19:28:22.393Z,6.00
2023-01-07T19:30:49.139Z,5.80
2023-01-07T19:33:15.772Z,6.20
2023-01-07T19:35:42.576Z,6.20
2023-01-07T19:38:09.346Z,5.50
2023-01-07T19:40:36.095Z,5.90
2023-01-07T19:43:02.707Z,6.10
2023-01-07T19:45:29.507Z,6.80
2023-01-07T19:47:56.146Z,6.60
2023-01-07T19:50:22.854Z,7.30
2023-01-07T19:52:49.536Z,6.80
2023-01-07T19:55:21.353Z,6.80
2023-01-07T19:57:54.044Z,6.70
2023-01-07T20:00:23.943Z,6.90
2023-01-07T20:03:15.709Z,6.20
2023-01-07T20:05:46.531Z,6.30
2023-01-07T20:08:13.365Z,6.40
2023-01-07T20:10:40.963Z,7.10
2023-01-07T20:13:07.585Z,7.00
2023-01-07T20:15:34.266Z,6.20
2023-01-07T20:18:00.907Z,6.40
2023-01-07T20:20:27.719Z,6.30
2023-01-07T20:22:54.902Z,5.60
2023-01-07T20:25:21.603Z,5.20
2023-01-07T20:27:48.288Z,5.00
2023-01-07T20:30:14.967Z,5.50
2023-01-07T20:32:41.731Z,5.00
2023-01-07T20:35:09.095Z,5.40
2023-01-07T20:37:35.820Z,5.00
2023-01-07T20:40:02.808Z,5.20
2023-01-07T20:42:31.823Z,5.10
2023-01-07T20:44:58.514Z,5.40
2023-01-07T20:47:25.190Z,4.70
2023-01-07T20:49:51.861Z,5.50
2023-01-07T20:52:18.531Z,5.10
2023-01-07T20:54:47.215Z,5.50
2023-01-07T20:57:14.079Z,6.00
2023-01-07T20:59:40.838Z,5.50
2023-01-07T21:02:13.649Z,5.90
2023-01-07T21:04:40.420Z,6.30
2023-01-07T21:07:07.190Z,6.10
2023-01-07T21:09:33.821Z,6.20
2023-01-07T21:12:00.839Z,6.60
2023-01-07T21:14:27.472Z,6.60
2023-01-07T21:16:54.158Z,6.10
2023-01-07T21:19:20.944Z,6.20
2023-01-07T21:21:48.682Z,6.60
2023-01-07T21:24:17.367Z,6.80
2023-01-07T21:26:44.238Z,6.20
2023-01-07T21:29:11.975Z,6.30
2023-01-07T21:31:38.736Z,6.00
2023-01-07T21:34:05.522Z,6.50
2023-01-07T21:36:32.163Z,7.00
2023-01-07T21:39:00.534Z,6.90
2023-01-07T21:41:28.460Z,7.00
2023-01-07T21:43:56.174Z,6.50
2023-01-07T21:46:23.057Z,6.00
2023-01-07T21:48:50.366Z,5.80
2023-01-07T21:51:19.236Z,6.00
2023-01-07T21:53:45.947Z,5.00
2023-01-07T21:56:14.984Z,5.90
2023-01-07T21:58:41.970Z,6.40
2023-01-07T22:01:09.971Z,6.80
2023-01-07T22:03:37.100Z,7.80
2023-01-07T22:06:08.696Z,7.30
2023-01-07T22:08:35.445Z,8.20
2023-01-07T22:11:02.257Z,7.90
2023-01-07T22:13:28.904Z,8.50
2023-01-07T22:15:56.144Z,7.90
2023-01-07T22:18:23.074Z,8.20
2023-01-07T22:20:56.131Z,8.60
2023-01-07T22:23:23.258Z,7.60
2023-01-07T22:25:49.897Z,7.10
2023-01-07T22:28:17.161Z,6.90
2023-01-07T22:30:47.069Z,7.10
2023-01-07T22:33:13.705Z,7.10
2023-01-07T22:35:40.356Z,7.30
2023-01-07T22:38:07.384Z,7.90
2023-01-07T22:40:34.996Z,7.70
2023-01-07T22:43:04.120Z,7.70
2023-01-07T22:45:48.410Z,8.00
2023-01-07T22:48:15.559Z,8.50
2023-01-07T22:50:42.226Z,8.50
2023-01-07T22:53:09.121Z,8.70
2023-01-07T22:55:35.891Z,8.00
2023-01-07T22:58:02.737Z,8.10
2023-01-07T23:00:51.672Z,8.20
2023-01-07T23:03:19.355Z,7.70
2023-01-07T23:05:46.127Z,7.10
2023-01-07T23:08:12.843Z,7.70
2023-01-07T23:10:39.832Z,8.10
2023-01-07T23:13:06.893Z,8.30
2023-01-07T23:15:34.085Z,7.40
2023-01-07T23:18:00.766Z,7.30
2023-01-07T23:20:27.531Z,8.20
2023-01-07T23:22:54.181Z,9.00
2023-01-07T23:25:20.872Z,8.90
2023-01-07T23:27:48.912Z,9.70
2023-01-07T23:30:15.745Z,9.60
2023-01-07T23:32:42.568Z,9.50
2023-01-07T23:35:09.497Z,10.50
2023-01-07T23:37:36.261Z,11.30
2023-01-07T23:40:03.199Z,10.40
2023-01-07T23:42:30.033Z,11.10
2023-01-07T23:44:57.215Z,11.60
2023-01-07T23:47:24.061Z,11.80
2023-01-07T23:49:50.695Z,10.90
2023-01-07T23:52:19.141Z,12.10
2023-01-07T23:54:46.294Z,12.40
2023-01-07T23:57:12.935Z,11.50
2023-01-07T23:59:39.663Z,11.30
